createdAt,value
2019-05-19T00:00:12.554Z,20.63
2019-05-19T00:02:42.820Z,21.40
2019-05-19T00:05:13.084Z,21.63
2019-05-19T00:07:43.278Z,19.13
2019-05-19T00:10:13.409Z,17.07
2019-05-19T00:12:43.667Z,20.93
2019-05-19T00:15:13.887Z,20.67
2019-05-19T00:17:44.346Z,21.57
2019-05-19T00:20:14.930Z,18.70
2019-05-19T00:22:45.187Z,20.20
2019-05-19T00:25:15.326Z,20.93
2019-05-19T00:27:45.714Z,19.67
2019-05-19T00:30:15.937Z,19.97
2019-05-19T00:32:46.066Z,18.80
2019-05-19T00:35:16.336Z,24.17
2019-05-19T00:37:46.479Z,18.80
2019-05-19T00:40:16.670Z,21.93
2019-05-19T00:42:46.868Z,19.13
2019-05-19T00:45:17.379Z,17.33
2019-05-19T00:47:48.520Z,21.57
2019-05-19T00:50:18.703Z,22.40
2019-05-19T00:52:48.956Z,22.40
2019-05-19T00:55:19.127Z,20.20
2019-05-19T00:57:50.049Z,22.77
2019-05-19T01:00:21.289Z,22.07
2019-05-19T01:02:51.482Z,23.37
2019-05-19T01:05:21.646Z,24.27
2019-05-19T01:07:51.877Z,18.97
2019-05-19T01:10:22.137Z,25.43
2019-05-19T01:12:52.367Z,23.23
2019-05-19T01:15:22.742Z,26.33
2019-05-19T01:17:52.823Z,23.03
2019-05-19T01:20:23.092Z,27.77
2019-05-19T01:22:53.266Z,24.63
2019-05-19T01:25:23.493Z,26.77
2019-05-19T01:27:53.738Z,24.27
2019-05-19T01:30:24.234Z,22.80
2019-05-19T01:32:54.499Z,23.03
2019-05-19T01:35:24.638Z,22.10
2019-05-19T01:37:54.820Z,27.97
2019-05-19T01:40:25.107Z,25.60
2019-05-19T01:42:55.441Z,26.93
2019-05-19T01:45:26.357Z,24.10
2019-05-19T01:47:58.500Z,26.77
2019-05-19T01:50:29.124Z,27.03
2019-05-19T01:53:00.531Z,29.97
2019-05-19T01:55:31.887Z,28.30
2019-05-19T01:58:02.061Z,31.13
2019-05-19T02:00:32.360Z,27.63
2019-05-19T02:03:02.655Z,28.63
2019-05-19T02:05:32.989Z,27.53
2019-05-19T02:08:03.298Z,29.13
2019-05-19T02:10:34.487Z,31.83
2019-05-19T02:13:05.362Z,34.33
2019-05-19T02:15:35.663Z,31.33
2019-05-19T02:18:05.839Z,30.77
2019-05-19T02:20:36.099Z,30.07
2019-05-19T02:23:06.325Z,30.30
2019-05-19T02:25:36.636Z,36.13
2019-05-19T02:28:06.954Z,33.83
2019-05-19T02:30:37.167Z,33.70
2019-05-19T02:33:07.321Z,31.00
2019-05-19T02:35:37.390Z,35.97
2019-05-19T02:38:07.694Z,33.53
2019-05-19T02:40:40.665Z,34.80
2019-05-19T02:43:12.138Z,38.83
2019-05-19T02:45:42.470Z,38.30
2019-05-19T02:48:14.674Z,36.93
2019-05-19T02:50:51.944Z,40.47
2019-05-19T02:53:18.996Z,34.03
2019-05-19T02:55:50.084Z,35.63
2019-05-19T02:58:20.559Z,30.43
2019-05-19T03:00:50.723Z,34.77
2019-05-19T03:03:20.935Z,26.57
2019-05-19T03:05:51.179Z,26.07
2019-05-19T03:08:21.464Z,26.47
2019-05-19T03:10:51.645Z,26.67
2019-05-19T03:13:21.989Z,26.33
2019-05-19T03:15:53.319Z,35.07
2019-05-19T03:18:23.551Z,29.70
2019-05-19T03:21:09.967Z,27.37
2019-05-19T03:23:25.730Z,30.90
2019-05-19T03:25:55.991Z,28.97
2019-05-19T03:28:26.325Z,29.53
2019-05-19T03:31:13.240Z,37.27
2019-05-19T03:33:45.490Z,33.83
2019-05-19T03:36:15.708Z,37.30
2019-05-19T03:38:46.126Z,40.97
2019-05-19T03:41:17.304Z,41.70
2019-05-19T03:43:47.621Z,43.63
2019-05-19T03:46:17.872Z,40.90
2019-05-19T03:48:48.982Z,39.10
2019-05-19T03:51:30.096Z,42.27
2019-05-19T03:53:51.084Z,41.17
2019-05-19T03:56:21.457Z,40.87
2019-05-19T03:58:51.640Z,45.03
2019-05-19T04:01:22.088Z,41.10
2019-05-19T04:03:52.325Z,49.13
2019-05-19T04:06:22.559Z,44.10
2019-05-19T04:08:52.907Z,47.03
2019-05-19T04:11:23.116Z,49.50
2019-05-19T04:13:54.438Z,47.90
2019-05-19T04:16:25.682Z,49.20
2019-05-19T04:18:55.840Z,50.63
2019-05-19T04:21:26.098Z,43.10
2019-05-19T04:23:56.393Z,51.13
2019-05-19T04:26:26.707Z,55.50
2019-05-19T04:28:56.872Z,49.50
2019-05-19T04:31:27.122Z,52.70
2019-05-19T04:33:57.288Z,48.33
2019-05-19T04:36:27.540Z,48.83
2019-05-19T04:38:57.763Z,44.53
2019-05-19T04:41:27.982Z,50.53
2019-05-19T04:43:58.241Z,44.90
2019-05-19T04:46:28.402Z,43.80
2019-05-19T04:48:59.621Z,40.43
2019-05-19T04:51:29.875Z,38.27
2019-05-19T04:54:00.088Z,35.17
2019-05-19T04:56:30.377Z,34.53
2019-05-19T04:59:00.533Z,27.80
2019-05-19T05:01:30.686Z,33.43
2019-05-19T05:04:00.939Z,29.10
2019-05-19T05:06:31.263Z,36.20
2019-05-19T05:09:01.474Z,30.77
2019-05-19T05:11:32.313Z,29.27
2019-05-19T05:14:02.777Z,30.27
2019-05-19T05:16:34.037Z,31.90
2019-05-19T05:19:04.242Z,30.00
2019-05-19T05:21:34.487Z,29.33
2019-05-19T05:24:04.663Z,28.50
2019-05-19T05:26:34.839Z,26.33
2019-05-19T05:29:05.094Z,24.87
2019-05-19T05:31:35.238Z,26.50
2019-05-19T05:34:05.453Z,25.73
2019-05-19T05:36:35.610Z,27.07
2019-05-19T05:39:06.893Z,28.17
2019-05-19T05:41:37.287Z,33.57
2019-05-19T05:44:07.517Z,39.60
2019-05-19T05:46:37.768Z,47.13
2019-05-19T05:49:09.027Z,49.40
2019-05-19T05:51:39.191Z,36.97
2019-05-19T05:54:09.454Z,31.27
2019-05-19T05:56:39.643Z,23.87
2019-05-19T05:59:09.957Z,27.23
2019-05-19T06:01:41.255Z,27.63
2019-05-19T06:04:11.450Z,28.00
2019-05-19T06:06:41.529Z,22.57
2019-05-19T06:09:11.695Z,26.43
2019-05-19T06:11:41.918Z,22.17
2019-05-19T06:14:12.149Z,26.73
2019-05-19T06:16:42.299Z,26.60
2019-05-19T06:19:12.463Z,25.43
2019-05-19T06:21:42.666Z,22.47
2019-05-19T06:24:12.804Z,21.03
2019-05-19T06:26:43.127Z,22.63
2019-05-19T06:29:13.303Z,24.43
2019-05-19T06:31:43.527Z,22.80
2019-05-19T06:34:13.771Z,24.47
2019-05-19T06:36:43.992Z,23.53
2019-05-19T06:39:14.173Z,29.87
2019-05-19T06:41:44.418Z,27.23
2019-05-19T06:44:14.600Z,24.90
2019-05-19T06:46:44.828Z,21.33
2019-05-19T06:49:15.986Z,20.17
2019-05-19T06:51:46.302Z,24.80
2019-05-19T06:54:16.507Z,23.83
2019-05-19T06:56:46.744Z,24.40
2019-05-19T06:59:17.026Z,27.27
2019-05-19T07:01:47.318Z,21.13
2019-05-19T07:04:17.499Z,19.97
2019-05-19T07:06:47.797Z,20.63
2019-05-19T07:09:17.922Z,16.97
2019-05-19T07:11:48.118Z,16.77
2019-05-19T07:14:18.396Z,18.80
2019-05-19T07:16:48.634Z,16.07
2019-05-19T07:19:19.019Z,18.87
2019-05-19T07:21:49.277Z,15.47
2019-05-19T07:24:19.575Z,16.77
2019-05-19T07:26:49.842Z,14.60
2019-05-19T07:29:20.055Z,12.63
2019-05-19T07:31:50.284Z,13.23
2019-05-19T07:34:20.447Z,13.10
2019-05-19T07:36:50.715Z,13.63
2019-05-19T07:39:20.891Z,13.00
2019-05-19T07:41:51.134Z,14.53
2019-05-19T07:44:21.307Z,12.97
2019-05-19T07:46:51.458Z,12.60
2019-05-19T07:49:22.650Z,13.37
2019-05-19T07:51:52.897Z,15.33
2019-05-19T07:54:23.144Z,14.17
2019-05-19T07:56:53.331Z,13.10
2019-05-19T07:59:23.508Z,14.60
2019-05-19T08:01:53.777Z,10.93
2019-05-19T08:04:23.991Z,12.87
2019-05-19T08:06:54.626Z,11.43
2019-05-19T08:09:24.793Z,10.37
2019-05-19T08:11:55.174Z,14.97
2019-05-19T08:14:25.515Z,11.70
2019-05-19T08:16:55.619Z,13.13
2019-05-19T08:19:28.629Z,14.30
2019-05-19T08:21:59.079Z,12.43
2019-05-19T08:24:29.293Z,12.43
2019-05-19T08:26:59.474Z,12.13
2019-05-19T08:29:29.775Z,14.03
2019-05-19T08:31:59.839Z,11.07
2019-05-19T08:34:30.027Z,11.77
2019-05-19T08:37:00.215Z,9.87
2019-05-19T08:39:31.430Z,9.40
2019-05-19T08:42:01.747Z,13.20
2019-05-19T08:44:31.960Z,11.73
2019-05-19T08:47:02.359Z,13.43
2019-05-19T08:49:33.493Z,10.93
2019-05-19T08:52:03.774Z,12.83
2019-05-19T08:54:34.455Z,11.77
2019-05-19T08:57:04.664Z,10.87
2019-05-19T08:59:34.860Z,9.73
2019-05-19T09:02:05.060Z,14.07
2019-05-19T09:04:35.324Z,13.10
2019-05-19T09:07:05.514Z,14.03
2019-05-19T09:09:35.751Z,12.83
2019-05-19T09:12:06.019Z,13.57
2019-05-19T09:14:36.295Z,19.03
2019-05-19T09:17:06.473Z,12.07
2019-05-19T09:19:36.711Z,10.53
2019-05-19T09:22:06.943Z,10.63
2019-05-19T09:24:37.443Z,13.80
2019-05-19T09:27:07.895Z,13.17
2019-05-19T09:29:38.205Z,12.03
2019-05-19T09:32:08.432Z,11.10
2019-05-19T09:34:38.536Z,10.60
2019-05-19T09:37:08.684Z,8.77
2019-05-19T09:39:38.885Z,10.70
2019-05-19T09:42:09.002Z,8.03
2019-05-19T09:44:39.198Z,10.87
2019-05-19T09:47:09.441Z,8.47
2019-05-19T09:49:40.707Z,9.43
2019-05-19T09:52:10.997Z,8.77
2019-05-19T09:54:45.237Z,11.00
2019-05-19T09:57:13.227Z,10.87
2019-05-19T09:59:43.568Z,16.10
2019-05-19T10:02:13.829Z,10.87
2019-05-19T10:04:44.172Z,9.73
2019-05-19T10:07:14.808Z,9.07
2019-05-19T10:10:06.555Z,9.93
2019-05-19T10:12:36.801Z,9.20
2019-05-19T10:15:07.473Z,8.23
2019-05-19T10:17:37.755Z,10.50
2019-05-19T10:20:09.008Z,7.80
2019-05-19T10:22:39.578Z,10.70
2019-05-19T10:25:21.545Z,10.30
2019-05-19T10:27:42.850Z,10.63
2019-05-19T10:30:14.106Z,10.97
2019-05-19T10:32:44.402Z,8.67
2019-05-19T10:35:14.870Z,9.00
2019-05-19T10:37:45.215Z,8.83
2019-05-19T10:40:15.441Z,8.80
2019-05-19T10:42:45.678Z,7.87
2019-05-19T10:45:16.227Z,7.87
2019-05-19T10:47:46.570Z,8.80
2019-05-19T10:50:17.656Z,8.73
2019-05-19T10:52:47.865Z,9.97
2019-05-19T10:55:18.136Z,9.13
2019-05-19T10:57:48.414Z,10.27
2019-05-19T11:00:19.303Z,9.40
2019-05-19T11:02:49.582Z,9.30
2019-05-19T11:05:19.853Z,13.43
2019-05-19T11:07:50.147Z,8.40
2019-05-19T11:10:20.419Z,8.53
2019-05-19T11:12:50.599Z,9.03
2019-05-19T11:15:20.852Z,8.93
2019-05-19T11:17:51.132Z,6.77
2019-05-19T11:20:21.363Z,11.47
2019-05-19T11:22:51.512Z,11.13
2019-05-19T11:25:33.346Z,6.70
2019-05-19T11:27:56.674Z,12.70
2019-05-19T11:30:26.875Z,10.67
2019-05-19T11:32:57.131Z,10.10
2019-05-19T11:35:27.455Z,10.17
2019-05-19T11:37:57.714Z,6.10
2019-05-19T11:40:27.796Z,8.10
2019-05-19T11:42:58.022Z,7.73
2019-05-19T11:45:29.273Z,7.27
2019-05-19T11:47:59.775Z,8.20
2019-05-19T11:50:31.698Z,6.50
2019-05-19T11:53:01.843Z,6.07
2019-05-19T11:55:33.050Z,10.03
2019-05-19T11:58:04.351Z,6.77
2019-05-19T12:00:34.614Z,6.77
2019-05-19T12:03:04.953Z,5.73
2019-05-19T12:05:35.327Z,8.10
2019-05-19T12:08:05.566Z,6.03
2019-05-19T12:10:35.860Z,8.20
2019-05-19T12:13:06.141Z,8.50
2019-05-19T12:15:36.322Z,6.77
2019-05-19T12:18:07.417Z,6.87
2019-05-19T12:20:38.789Z,8.70
2019-05-19T12:23:08.866Z,8.33
2019-05-19T12:25:39.423Z,7.63
2019-05-19T12:28:09.536Z,7.30
2019-05-19T12:30:39.786Z,7.23
2019-05-19T12:33:10.045Z,12.63
2019-05-19T12:35:40.393Z,5.63
2019-05-19T12:38:10.786Z,6.63
2019-05-19T12:40:41.367Z,7.80
2019-05-19T12:43:11.523Z,9.13
2019-05-19T12:45:41.707Z,10.83
2019-05-19T12:48:12.010Z,9.97
2019-05-19T12:50:43.136Z,8.83
2019-05-19T12:53:13.315Z,13.07
2019-05-19T12:55:43.449Z,16.53
2019-05-19T12:58:13.712Z,9.60
2019-05-19T13:00:44.506Z,9.77
2019-05-19T13:03:17.463Z,14.03
2019-05-19T13:05:49.698Z,16.50
2019-05-19T13:08:20.309Z,15.53
2019-05-19T13:11:04.989Z,18.90
2019-05-19T13:13:37.126Z,19.00
2019-05-19T13:16:08.064Z,13.60
2019-05-19T13:18:38.898Z,10.73
2019-05-19T13:21:11.342Z,14.13
2019-05-19T13:23:46.260Z,13.17
2019-05-19T13:26:20.007Z,8.60
2019-05-19T13:28:50.710Z,8.37
2019-05-19T13:31:21.584Z,12.50
2019-05-19T13:34:00.727Z,10.60
2019-05-19T13:36:33.538Z,8.57
2019-05-19T13:39:06.649Z,8.80
2019-05-19T13:41:36.902Z,8.93
2019-05-19T13:44:07.195Z,7.73
2019-05-19T13:46:37.350Z,7.90
2019-05-19T13:49:07.662Z,6.47
2019-05-19T13:51:37.784Z,9.50
2019-05-19T13:54:07.917Z,11.33
2019-05-19T13:56:38.112Z,8.20
2019-05-19T13:59:08.328Z,8.23
2019-05-19T14:01:38.474Z,6.60
2019-05-19T14:04:08.742Z,8.23
2019-05-19T14:06:39.095Z,7.87
2019-05-19T14:09:09.322Z,7.30
2019-05-19T14:11:39.699Z,7.80
2019-05-19T14:14:11.226Z,8.07
2019-05-19T14:16:41.347Z,9.77
2019-05-19T14:19:11.533Z,8.50
2019-05-19T14:21:41.825Z,6.97
2019-05-19T14:24:11.964Z,7.33
2019-05-19T14:26:42.255Z,7.93
2019-05-19T14:29:12.386Z,7.13
2019-05-19T14:31:42.715Z,9.03
2019-05-19T14:34:13.182Z,6.80
2019-05-19T14:36:43.336Z,6.03
2019-05-19T14:39:13.601Z,7.90
2019-05-19T14:41:48.526Z,4.97
2019-05-19T14:44:18.658Z,6.93
2019-05-19T14:46:48.866Z,5.73
2019-05-19T14:49:19.058Z,8.77
2019-05-19T14:51:49.350Z,8.20
2019-05-19T14:54:19.549Z,8.57
2019-05-19T14:56:49.829Z,12.00
2019-05-19T14:59:20.019Z,11.90
2019-05-19T15:01:50.058Z,9.17
2019-05-19T15:04:20.342Z,5.37
2019-05-19T15:06:50.543Z,6.37
2019-05-19T15:09:20.817Z,6.67
2019-05-19T15:11:51.055Z,7.43
2019-05-19T15:14:21.184Z,6.67
2019-05-19T15:16:51.381Z,8.60
2019-05-19T15:19:21.689Z,7.10
2019-05-19T15:21:51.986Z,7.40
2019-05-19T15:24:22.893Z,10.53
2019-05-19T15:26:53.029Z,7.13
2019-05-19T15:29:23.320Z,11.80
2019-05-19T15:31:53.489Z,7.23
2019-05-19T15:34:23.668Z,8.87
2019-05-19T15:36:53.845Z,13.13
2019-05-19T15:39:24.108Z,8.83
2019-05-19T15:41:54.751Z,8.60
2019-05-19T15:44:25.496Z,7.50
2019-05-19T15:46:56.087Z,9.90
2019-05-19T15:49:26.702Z,11.47
2019-05-19T15:52:03.001Z,10.93
2019-05-19T15:54:29.765Z,8.30
2019-05-19T15:57:00.438Z,8.53
2019-05-19T15:59:31.527Z,13.80
2019-05-19T16:02:02.269Z,9.37
2019-05-19T16:04:32.954Z,11.43
2019-05-19T16:07:03.661Z,9.20
2019-05-19T16:09:34.324Z,8.70
2019-05-19T16:12:04.940Z,8.37
2019-05-19T16:14:35.325Z,8.47
2019-05-19T16:17:06.631Z,9.00
2019-05-19T16:19:36.805Z,7.50
2019-05-19T16:22:07.166Z,6.37
2019-05-19T16:24:37.401Z,8.70
2019-05-19T16:27:07.709Z,6.43
2019-05-19T16:29:37.970Z,7.43
2019-05-19T16:32:08.106Z,7.90
2019-05-19T16:34:38.231Z,5.50
2019-05-19T16:37:09.531Z,9.67
2019-05-19T16:39:39.692Z,7.47
2019-05-19T16:42:10.157Z,6.27
2019-05-19T16:44:40.412Z,9.00
2019-05-19T16:47:10.606Z,8.77
2019-05-19T16:49:40.913Z,9.03
2019-05-19T16:52:11.199Z,9.40
2019-05-19T16:54:44.144Z,7.77
2019-05-19T16:57:14.317Z,6.40
2019-05-19T16:59:46.296Z,8.60
2019-05-19T17:02:16.573Z,7.47
2019-05-19T17:04:46.743Z,8.27
2019-05-19T17:07:16.950Z,8.80
2019-05-19T17:09:47.212Z,7.00
2019-05-19T17:12:17.507Z,6.00
2019-05-19T17:14:49.221Z,8.47
2019-05-19T17:17:20.740Z,8.43
2019-05-19T17:19:53.236Z,7.60
2019-05-19T17:22:23.514Z,6.93
2019-05-19T17:24:54.068Z,7.97
2019-05-19T17:27:26.817Z,8.33
2019-05-19T17:29:56.998Z,9.27
2019-05-19T17:32:27.392Z,8.67
2019-05-19T17:34:58.990Z,10.43
2019-05-19T17:37:32.123Z,8.83
2019-05-19T17:40:03.386Z,10.30
2019-05-19T17:42:37.342Z,10.17
2019-05-19T17:45:08.438Z,11.27
2019-05-19T17:47:38.703Z,7.30
2019-05-19T17:50:17.471Z,9.93
2019-05-19T17:52:43.085Z,12.03
2019-05-19T17:55:13.658Z,11.47
2019-05-19T17:57:49.352Z,16.23
2019-05-19T18:00:28.406Z,18.20
2019-05-19T18:02:58.623Z,15.57
2019-05-19T18:05:28.970Z,13.83
2019-05-19T18:07:59.213Z,13.10
2019-05-19T18:10:29.539Z,13.23
2019-05-19T18:12:59.702Z,15.73
2019-05-19T18:15:29.921Z,17.67
2019-05-19T18:18:00.143Z,18.63
2019-05-19T18:20:31.507Z,15.60
2019-05-19T18:23:01.848Z,14.10
2019-05-19T18:25:32.250Z,16.13
2019-05-19T18:28:02.578Z,11.90
2019-05-19T18:30:32.829Z,13.90
2019-05-19T18:33:03.159Z,15.97
2019-05-19T18:35:33.587Z,14.23
2019-05-19T18:38:03.900Z,13.67
2019-05-19T18:40:34.165Z,15.70
2019-05-19T18:43:04.472Z,15.27
2019-05-19T18:45:34.726Z,14.43
2019-05-19T18:48:06.085Z,14.30
2019-05-19T18:50:37.877Z,17.73
2019-05-19T18:53:08.198Z,15.80
2019-05-19T18:55:38.352Z,18.50
2019-05-19T18:58:08.681Z,16.57
2019-05-19T19:00:39.362Z,13.77
2019-05-19T19:03:09.769Z,14.73
2019-05-19T19:05:40.014Z,13.93
2019-05-19T19:08:10.271Z,15.00
2019-05-19T19:10:40.741Z,16.23
2019-05-19T19:13:11.206Z,13.70
2019-05-19T19:15:41.477Z,16.67
2019-05-19T19:18:11.826Z,18.23
2019-05-19T19:20:42.365Z,20.70
2019-05-19T19:23:12.658Z,23.13
2019-05-19T19:25:42.859Z,18.23
2019-05-19T19:28:13.229Z,18.97
2019-05-19T19:30:44.183Z,16.40
2019-05-19T19:33:14.366Z,15.73
2019-05-19T19:35:44.686Z,16.03
2019-05-19T19:38:14.967Z,16.97
2019-05-19T19:40:46.012Z,23.03
2019-05-19T19:43:16.493Z,18.67
2019-05-19T19:45:47.143Z,20.77
2019-05-19T19:48:17.851Z,22.43
2019-05-19T19:50:48.450Z,22.63
2019-05-19T19:53:19.258Z,21.00
2019-05-19T19:55:49.822Z,20.77
2019-05-19T19:58:20.581Z,24.60
2019-05-19T20:00:50.837Z,20.87
2019-05-19T20:03:21.215Z,20.10
2019-05-19T20:05:52.888Z,23.47
2019-05-19T20:08:23.002Z,20.50
2019-05-19T20:10:53.258Z,23.40
2019-05-19T20:13:23.469Z,21.07
2019-05-19T20:15:53.662Z,21.43
2019-05-19T20:18:23.950Z,21.17
2019-05-19T20:20:54.294Z,22.53
2019-05-19T20:23:24.731Z,20.90
2019-05-19T20:25:54.898Z,22.73
2019-05-19T20:28:25.090Z,23.37
2019-05-19T20:30:55.899Z,21.80
2019-05-19T20:33:26.175Z,21.23
2019-05-19T20:35:56.531Z,23.07
2019-05-19T20:38:26.835Z,22.10
2019-05-19T20:40:57.271Z,23.07
2019-05-19T20:43:27.526Z,21.43
2019-05-19T20:45:57.746Z,21.00
2019-05-19T20:48:27.926Z,20.23
2019-05-19T20:50:58.006Z,23.63
2019-05-19T20:53:28.175Z,21.83
2019-05-19T20:55:58.274Z,20.13
2019-05-19T20:58:28.619Z,29.50
2019-05-19T21:00:58.910Z,22.40
2019-05-19T21:03:29.174Z,22.93
2019-05-19T21:05:59.279Z,24.30
2019-05-19T21:08:29.426Z,21.43
2019-05-19T21:10:59.580Z,21.83
2019-05-19T21:13:29.736Z,22.80
2019-05-19T21:16:01.007Z,25.93
2019-05-19T21:18:32.257Z,24.43
2019-05-19T21:21:02.524Z,23.33
2019-05-19T21:23:32.886Z,21.83
2019-05-19T21:26:03.070Z,25.13
2019-05-19T21:28:33.298Z,27.10
2019-05-19T21:31:05.721Z,25.50
2019-05-19T21:33:35.331Z,24.60
2019-05-19T21:36:05.516Z,28.13
2019-05-19T21:38:35.711Z,24.30
2019-05-19T21:41:06.033Z,24.50
2019-05-19T21:43:36.107Z,26.13
2019-05-19T21:46:06.689Z,24.03
2019-05-19T21:48:36.939Z,22.77
2019-05-19T21:51:07.099Z,24.93
2019-05-19T21:53:37.225Z,22.93
2019-05-19T21:56:07.315Z,26.23
2019-05-19T21:58:37.489Z,27.73
2019-05-19T22:01:22.326Z,22.90
2019-05-19T22:03:40.082Z,26.80
2019-05-19T22:06:10.282Z,23.90
2019-05-19T22:08:40.514Z,21.90
2019-05-19T22:11:10.640Z,24.37
2019-05-19T22:13:40.806Z,24.87
2019-05-19T22:16:13.255Z,24.00
2019-05-19T22:18:42.655Z,21.50
2019-05-19T22:21:12.730Z,22.70
2019-05-19T22:23:42.816Z,28.40
2019-05-19T22:26:13.126Z,21.23
2019-05-19T22:28:43.320Z,22.67
2019-05-19T22:31:13.465Z,22.57
2019-05-19T22:33:43.700Z,21.47
2019-05-19T22:36:13.910Z,20.70
2019-05-19T22:38:44.088Z,19.43
2019-05-19T22:41:14.338Z,28.70
2019-05-19T22:43:44.487Z,26.43
2019-05-19T22:46:14.575Z,20.37
2019-05-19T22:48:44.829Z,24.37
2019-05-19T22:51:14.974Z,20.10
2019-05-19T22:53:45.062Z,21.63
2019-05-19T22:56:15.313Z,17.80
2019-05-19T22:58:45.581Z,19.63
2019-05-19T23:01:15.697Z,21.43
2019-05-19T23:03:45.918Z,25.80
2019-05-19T23:06:16.051Z,23.47
2019-05-19T23:08:46.220Z,20.00
2019-05-19T23:11:16.350Z,24.57
2019-05-19T23:13:46.503Z,20.73
2019-05-19T23:16:16.626Z,21.37
2019-05-19T23:18:46.808Z,22.73
2019-05-19T23:21:17.062Z,19.30
2019-05-19T23:23:47.210Z,19.27
2019-05-19T23:26:17.386Z,22.33
2019-05-19T23:28:47.530Z,19.40
2019-05-19T23:31:17.670Z,17.53
2019-05-19T23:33:47.935Z,19.10
2019-05-19T23:36:18.095Z,24.80
2019-05-19T23:38:48.334Z,19.87
2019-05-19T23:41:18.515Z,19.37
2019-05-19T23:43:48.686Z,18.30
2019-05-19T23:46:18.904Z,22.43
2019-05-19T23:48:49.034Z,20.43
2019-05-19T23:51:19.272Z,23.57
2019-05-19T23:53:49.390Z,23.10
2019-05-19T23:56:19.565Z,20.97
2019-05-19T23:58:49.663Z,21.47
